createdAt,value
2022-11-05T00:02:31.017Z,100126.78
2022-11-05T00:05:16.081Z,100128.56
2022-11-05T00:08:07.913Z,100133.78
2022-11-05T00:10:37.621Z,100139.00
2022-11-05T00:13:25.883Z,100134.09
2022-11-05T00:16:11.285Z,100133.78
2022-11-05T00:18:39.178Z,100149.34
2022-11-05T00:21:27.348Z,100144.34
2022-11-05T00:24:13.007Z,100152.72
2022-11-05T00:26:41.191Z,100152.34
2022-11-05T00:29:08.919Z,100159.72
2022-11-05T00:31:36.646Z,100158.75
2022-11-05T00:34:04.512Z,100166.06
2022-11-05T00:36:32.282Z,100164.34
2022-11-05T00:39:01.317Z,100172.72
2022-11-05T00:41:29.025Z,100172.25
2022-11-05T00:44:14.771Z,100173.09
2022-11-05T00:46:42.539Z,100169.53
2022-11-05T00:49:27.716Z,100168.94
2022-11-05T00:52:17.041Z,100165.03
2022-11-05T00:54:46.155Z,100182.91
2022-11-05T00:57:13.937Z,100191.88
2022-11-05T00:59:41.699Z,100171.06
2022-11-05T01:02:09.588Z,100191.41
2022-11-05T01:04:37.381Z,100194.66
2022-11-05T01:07:05.134Z,100201.91
2022-11-05T01:09:32.987Z,100192.09
2022-11-05T01:12:02.228Z,100198.97
2022-11-05T01:14:30.271Z,100193.13
2022-11-05T01:16:58.001Z,100202.91
2022-11-05T01:19:25.726Z,100206.38
2022-11-05T01:21:53.549Z,100199.72
2022-11-05T01:24:21.442Z,100209.31
2022-11-05T01:26:49.253Z,100203.88
2022-11-05T01:29:18.362Z,100198.75
2022-11-05T01:31:46.171Z,100203.75
2022-11-05T01:34:13.954Z,100211.50
2022-11-05T01:36:41.707Z,100193.00
2022-11-05T01:39:09.469Z,100223.34
2022-11-05T01:41:37.255Z,100215.03
2022-11-05T01:44:05.438Z,100211.78
2022-11-05T01:46:37.522Z,100212.09
2022-11-05T01:49:13.316Z,100226.25
2022-11-05T01:51:42.243Z,100225.22
2022-11-05T01:54:14.418Z,100216.63
2022-11-05T01:56:45.699Z,100217.47
2022-11-05T01:59:17.513Z,100223.34
2022-11-05T02:01:47.627Z,100225.28
2022-11-05T02:04:20.794Z,100229.94
2022-11-05T02:06:48.700Z,100233.16
2022-11-05T02:09:21.702Z,100235.72
2022-11-05T02:11:50.891Z,100237.69
2022-11-05T02:14:19.276Z,100234.59
2022-11-05T02:16:54.301Z,100229.00
2022-11-05T02:19:47.293Z,100227.50
2022-11-05T02:22:41.693Z,100241.44
2022-11-05T02:25:41.809Z,100242.84
2022-11-05T02:28:35.005Z,100240.97
2022-11-05T02:31:11.161Z,100237.91
2022-11-05T02:33:45.005Z,100245.00
2022-11-05T02:36:30.271Z,100249.28
2022-11-05T02:39:09.473Z,100244.34
2022-11-05T02:41:47.748Z,100246.31
2022-11-05T02:44:24.892Z,100245.28
2022-11-05T02:46:59.442Z,100241.34
2022-11-05T02:49:36.301Z,100251.66
2022-11-05T02:52:10.477Z,100249.78
2022-11-05T02:54:44.114Z,100246.66
2022-11-05T02:57:11.926Z,100252.81
2022-11-05T02:59:39.746Z,100263.63
2022-11-05T03:02:09.196Z,100246.56
2022-11-05T03:04:37.162Z,100264.47
2022-11-05T03:07:22.886Z,100276.75
2022-11-05T03:10:18.777Z,100272.97
2022-11-05T03:12:58.492Z,100276.31
2022-11-05T03:15:40.204Z,100282.09
2022-11-05T03:18:15.936Z,100280.41
2022-11-05T03:20:49.965Z,100276.22
2022-11-05T03:23:28.689Z,100283.47
2022-11-05T03:26:17.546Z,100285.19
2022-11-05T03:28:49.180Z,100287.50
2022-11-05T03:31:18.767Z,100289.53
2022-11-05T03:33:49.709Z,100296.22
2022-11-05T03:36:22.947Z,100294.53
2022-11-05T03:38:54.251Z,100295.22
2022-11-05T03:41:23.952Z,100301.44
2022-11-05T03:43:56.114Z,100296.22
2022-11-05T03:46:29.371Z,100315.88
2022-11-05T03:49:00.259Z,100318.84
2022-11-05T03:51:37.537Z,100314.25
2022-11-05T03:54:06.328Z,100314.66
2022-11-05T03:56:39.277Z,100320.75
2022-11-05T03:59:10.361Z,100327.84
2022-11-05T04:01:39.383Z,100320.53
2022-11-05T04:04:10.293Z,100321.13
2022-11-05T04:06:55.577Z,100318.47
2022-11-05T04:09:40.812Z,100322.03
2022-11-05T04:12:27.788Z,100326.84
2022-11-05T04:14:55.683Z,100332.75
2022-11-05T04:17:22.671Z,100335.13
2022-11-05T04:20:09.237Z,100333.72
2022-11-05T04:22:54.859Z,100336.50
2022-11-05T04:25:23.476Z,100350.31
2022-11-05T04:27:51.263Z,100337.16
2022-11-05T04:30:19.376Z,100337.00
2022-11-05T04:33:02.046Z,100342.28
2022-11-05T04:35:33.004Z,100342.97
2022-11-05T04:38:01.138Z,100352.91
2022-11-05T04:40:29.328Z,100355.41
2022-11-05T04:42:58.377Z,100358.69
2022-11-05T04:45:28.506Z,100362.28
2022-11-05T04:47:56.364Z,100366.69
2022-11-05T04:50:24.870Z,100361.19
2022-11-05T04:52:54.156Z,100364.31
2022-11-05T04:55:22.237Z,100360.31
2022-11-05T04:57:50.575Z,100370.44
2022-11-05T05:00:19.610Z,100372.72
2022-11-05T05:02:47.865Z,100370.47
2022-11-05T05:05:16.461Z,100364.41
2022-11-05T05:07:44.323Z,100371.09
2022-11-05T05:10:14.053Z,100377.34
2022-11-05T05:12:42.060Z,100379.66
2022-11-05T05:15:09.961Z,100379.00
2022-11-05T05:17:37.831Z,100371.97
2022-11-05T05:20:38.015Z,100385.97
2022-11-05T05:23:06.274Z,100385.56
2022-11-05T05:25:35.433Z,100382.72
2022-11-05T05:28:03.428Z,100379.41
2022-11-05T05:30:31.158Z,100389.63
2022-11-05T05:33:02.876Z,100385.66
2022-11-05T05:35:30.646Z,100388.56
2022-11-05T05:37:58.364Z,100400.44
2022-11-05T05:40:26.127Z,100378.16
2022-11-05T05:42:56.555Z,100395.47
2022-11-05T05:45:24.312Z,100407.56
2022-11-05T05:47:52.148Z,100420.72
2022-11-05T05:50:19.913Z,100422.13
2022-11-05T05:52:47.716Z,100419.66
2022-11-05T05:55:16.021Z,100429.66
2022-11-05T05:57:43.850Z,100435.91
2022-11-05T06:00:14.878Z,100430.28
2022-11-05T06:02:42.999Z,100435.28
2022-11-05T06:05:11.099Z,100442.38
2022-11-05T06:07:38.889Z,100440.06
2022-11-05T06:10:07.678Z,100440.69
2022-11-05T06:12:35.679Z,100439.63
2022-11-05T06:15:04.022Z,100442.53
2022-11-05T06:17:34.015Z,100448.16
2022-11-05T06:20:01.880Z,100461.31
2022-11-05T06:22:30.274Z,100457.13
2022-11-05T06:24:58.113Z,100468.19
2022-11-05T06:27:26.017Z,100469.00
2022-11-05T06:29:53.807Z,100466.72
2022-11-05T06:32:21.674Z,100479.66
2022-11-05T06:34:50.991Z,100480.28
2022-11-05T06:37:18.820Z,100475.06
2022-11-05T06:39:46.698Z,100478.19
2022-11-05T06:42:19.052Z,100475.06
2022-11-05T06:44:47.417Z,100484.22
2022-11-05T06:47:15.236Z,100492.34
2022-11-05T06:49:43.165Z,100485.06
2022-11-05T06:52:12.634Z,100494.03
2022-11-05T06:54:40.779Z,100483.81
2022-11-05T06:57:10.062Z,100502.38
2022-11-05T06:59:38.274Z,100503.22
2022-11-05T07:02:06.957Z,100514.50
2022-11-05T07:04:34.958Z,100507.63
2022-11-05T07:07:03.236Z,100515.16
2022-11-05T07:09:32.374Z,100522.47
2022-11-05T07:12:00.428Z,100529.75
2022-11-05T07:14:28.205Z,100531.84
2022-11-05T07:16:57.903Z,100529.78
2022-11-05T07:19:25.618Z,100524.97
2022-11-05T07:21:53.433Z,100536.66
2022-11-05T07:24:27.715Z,100546.25
2022-11-05T07:26:57.129Z,100544.19
2022-11-05T07:29:24.977Z,100556.69
2022-11-05T07:31:55.441Z,100562.50
2022-11-05T07:34:23.334Z,100560.00
2022-11-05T07:37:01.230Z,100554.34
2022-11-05T07:39:32.008Z,100573.75
2022-11-05T07:42:12.659Z,100580.63
2022-11-05T07:47:28.925Z,100541.81
2022-11-05T07:50:05.516Z,100581.28
2022-11-05T07:52:33.657Z,100575.00
2022-11-05T07:55:01.498Z,100583.06
2022-11-05T07:57:31.048Z,100581.56
2022-11-05T07:59:58.896Z,100594.75
2022-11-05T08:02:34.916Z,100593.41
2022-11-05T08:05:10.113Z,100596.28
2022-11-05T08:07:38.821Z,100601.00
2022-11-05T08:10:09.929Z,100597.53
2022-11-05T08:12:41.793Z,100608.41
2022-11-05T08:15:11.263Z,100605.91
2022-11-05T08:17:39.395Z,100607.59
2022-11-05T08:20:09.009Z,100606.56
2022-11-05T08:22:43.645Z,100611.34
2022-11-05T08:25:15.667Z,100616.91
2022-11-05T08:27:56.675Z,100612.34
2022-11-05T08:30:29.221Z,100623.13
2022-11-05T08:33:01.951Z,100620.97
2022-11-05T08:35:35.977Z,100626.38
2022-11-05T08:38:10.451Z,100622.94
2022-11-05T08:40:38.597Z,100627.38
2022-11-05T08:43:13.889Z,100611.63
2022-11-05T08:45:46.723Z,100628.94
2022-11-05T08:48:21.668Z,100619.53
2022-11-05T08:50:50.009Z,100633.78
2022-11-05T08:53:18.021Z,100634.56
2022-11-05T08:55:51.578Z,100635.31
2022-11-05T08:58:20.989Z,100640.19
2022-11-05T09:00:51.988Z,100642.72
2022-11-05T09:03:20.205Z,100636.06
2022-11-05T09:05:48.375Z,100639.69
2022-11-05T09:08:18.318Z,100638.59
2022-11-05T09:10:47.877Z,100635.97
2022-11-05T09:13:19.320Z,100634.97
2022-11-05T09:15:50.270Z,100622.88
2022-11-05T09:18:19.534Z,100623.31
2022-11-05T09:20:48.440Z,100633.63
2022-11-05T09:23:16.955Z,100628.13
2022-11-05T09:25:46.938Z,100635.81
2022-11-05T09:28:22.055Z,100626.53
2022-11-05T09:30:52.913Z,100643.38
2022-11-05T09:33:23.306Z,100648.09
2022-11-05T09:35:54.731Z,100650.66
2022-11-05T09:38:23.981Z,100645.53
2022-11-05T09:40:58.636Z,100653.69
2022-11-05T09:43:32.158Z,100652.41
2022-11-05T09:46:08.849Z,100641.19
2022-11-05T09:48:39.264Z,100667.00
2022-11-05T09:51:22.423Z,100660.66
2022-11-05T09:53:59.444Z,100662.06
2022-11-05T09:56:39.398Z,100671.38
2022-11-05T09:59:15.393Z,100668.91
2022-11-05T10:02:05.615Z,100683.19
2022-11-05T10:04:45.809Z,100683.88
2022-11-05T10:07:18.077Z,100689.16
2022-11-05T10:09:49.408Z,100677.94
2022-11-05T10:12:23.980Z,100692.03
2022-11-05T10:15:03.882Z,100685.50
2022-11-05T10:17:38.872Z,100703.97
2022-11-05T10:20:16.277Z,100698.56
2022-11-05T10:22:49.336Z,100699.19
2022-11-05T10:25:20.432Z,100684.34
2022-11-05T10:27:55.449Z,100699.28
2022-11-05T10:30:24.137Z,100694.41
2022-11-05T10:32:58.401Z,100688.09
2022-11-05T10:35:30.337Z,100689.34
2022-11-05T10:37:58.549Z,100700.44
2022-11-05T10:40:38.386Z,100700.72
2022-11-05T10:43:11.544Z,100694.91
2022-11-05T10:45:49.469Z,100692.47
2022-11-05T10:48:43.667Z,100698.56
2022-11-05T10:51:12.153Z,100692.81
2022-11-05T10:53:54.880Z,100708.88
2022-11-05T10:56:34.565Z,100703.28
2022-11-05T10:59:07.987Z,100703.56
2022-11-05T11:01:39.345Z,100697.91
2022-11-05T11:04:17.055Z,100697.38
2022-11-05T11:06:50.693Z,100688.34
2022-11-05T11:09:25.654Z,100698.84
2022-11-05T11:12:06.867Z,100699.63
2022-11-05T11:14:35.286Z,100674.16
2022-11-05T11:17:28.121Z,100681.56
2022-11-05T11:20:22.004Z,100693.31
2022-11-05T11:23:13.988Z,100694.00
2022-11-05T11:25:49.068Z,100684.56
2022-11-05T11:28:22.343Z,100685.88
2022-11-05T11:30:55.082Z,100679.72
2022-11-05T11:33:27.492Z,100671.50
2022-11-05T11:35:57.837Z,100670.44
2022-11-05T11:38:30.216Z,100678.88
2022-11-05T11:41:03.698Z,100666.75
2022-11-05T11:43:36.106Z,100661.53
2022-11-05T11:46:08.852Z,100659.31
2022-11-05T11:48:43.242Z,100669.47
2022-11-05T11:51:31.673Z,100658.53
2022-11-05T11:54:00.629Z,100671.50
2022-11-05T11:56:30.271Z,100661.28
2022-11-05T11:59:02.303Z,100658.06
2022-11-05T12:01:55.635Z,100642.28
2022-11-05T12:04:53.435Z,100666.03
2022-11-05T12:07:34.908Z,100664.41
2022-11-05T12:14:11.075Z,100657.81
2022-11-05T12:17:04.999Z,100650.63
2022-11-05T12:19:57.841Z,100658.53
2022-11-05T12:22:36.479Z,100657.81
2022-11-05T12:25:21.523Z,100650.47
2022-11-05T12:28:21.296Z,100653.22
2022-11-05T12:30:57.148Z,100649.53
2022-11-05T12:33:31.165Z,100641.88
2022-11-05T12:36:14.596Z,100650.13
2022-11-05T12:39:07.892Z,100642.50
2022-11-05T12:41:43.321Z,100637.78
2022-11-05T12:44:34.947Z,100648.44
2022-11-05T12:47:15.418Z,100650.34
2022-11-05T12:49:55.385Z,100629.41
2022-11-05T12:52:39.924Z,100657.13
2022-11-05T12:55:15.413Z,100658.81
2022-11-05T12:57:49.073Z,100643.72
2022-11-05T13:00:20.396Z,100649.28
2022-11-05T13:02:53.714Z,100637.31
2022-11-05T13:05:28.645Z,100660.81
2022-11-05T13:08:13.507Z,100662.09
2022-11-05T13:10:50.834Z,100656.34
2022-11-05T13:13:27.854Z,100656.50
2022-11-05T13:16:00.259Z,100646.44
2022-11-05T13:18:32.977Z,100657.50
2022-11-05T13:21:16.116Z,100650.53
2022-11-05T13:23:49.038Z,100660.31
2022-11-05T13:26:26.631Z,100658.91
2022-11-05T13:28:59.104Z,100652.09
2022-11-05T13:31:32.554Z,100667.69
2022-11-05T13:34:05.270Z,100668.63
2022-11-05T13:36:57.246Z,100668.53
2022-11-05T13:39:30.076Z,100653.56
2022-11-05T13:42:23.944Z,100675.13
2022-11-05T13:45:07.714Z,100672.06
2022-11-05T13:47:55.949Z,100681.94
2022-11-05T13:50:51.908Z,100677.72
2022-11-05T13:53:55.064Z,100676.50
2022-11-05T13:56:34.855Z,100680.78
2022-11-05T13:59:45.269Z,100694.91
2022-11-05T14:02:18.346Z,100694.28
2022-11-05T14:04:48.911Z,100696.44
2022-11-05T14:07:20.533Z,100706.81
2022-11-05T14:09:54.601Z,100689.00
2022-11-05T14:12:26.664Z,100683.63
2022-11-05T14:15:03.905Z,100689.53
2022-11-05T14:17:54.368Z,100685.03
2022-11-05T14:20:39.589Z,100673.47
2022-11-05T14:23:47.172Z,100686.53
2022-11-05T14:26:19.435Z,100692.72
2022-11-05T14:28:52.629Z,100689.94
2022-11-05T14:34:46.107Z,100693.38
2022-11-05T14:37:26.981Z,100696.81
2022-11-05T14:39:56.188Z,100687.66
2022-11-05T14:42:27.632Z,100674.94
2022-11-05T14:45:06.977Z,100687.84
2022-11-05T14:47:45.130Z,100699.38
2022-11-05T14:50:20.856Z,100677.88
2022-11-05T14:52:53.287Z,100682.63
2022-11-05T14:55:29.237Z,100683.88
2022-11-05T14:58:33.110Z,100691.63
2022-11-05T15:01:02.974Z,100689.94
2022-11-05T15:03:47.130Z,100689.16
2022-11-05T15:06:25.898Z,100695.63
2022-11-05T15:09:21.870Z,100703.28
2022-11-05T15:12:00.492Z,100696.78
2022-11-05T15:14:32.944Z,100690.88
2022-11-05T15:17:09.659Z,100689.00
2022-11-05T15:19:42.098Z,100704.38
2022-11-05T15:22:30.008Z,100702.06
2022-11-05T15:24:57.802Z,100702.25
2022-11-05T15:27:50.234Z,100685.97
2022-11-05T15:30:20.476Z,100689.72
2022-11-05T15:32:48.564Z,100696.00
2022-11-05T15:35:27.170Z,100687.34
2022-11-05T15:38:02.026Z,100698.03
2022-11-05T15:40:32.376Z,100702.44
2022-11-05T15:43:12.047Z,100690.06
2022-11-05T15:45:40.101Z,100694.22
2022-11-05T15:48:15.377Z,100698.47
2022-11-05T15:50:44.712Z,100699.00
2022-11-05T15:54:15.783Z,100705.91
2022-11-05T15:56:24.375Z,100704.06
2022-11-05T15:58:55.645Z,100703.38
2022-11-05T16:01:27.920Z,100703.78
2022-11-05T16:03:57.930Z,100709.06
2022-11-05T16:06:35.345Z,100695.91
2022-11-05T16:09:03.856Z,100683.13
2022-11-05T16:11:32.674Z,100681.94
2022-11-05T16:14:16.027Z,100702.22
2022-11-05T16:16:44.468Z,100683.88
2022-11-05T16:19:40.913Z,100709.53
2022-11-05T16:22:10.420Z,100675.16
2022-11-05T16:24:38.594Z,100717.56
2022-11-05T16:27:07.498Z,100719.19
2022-11-05T16:29:37.133Z,100711.28
2022-11-05T16:32:07.947Z,100713.16
2022-11-05T16:34:39.131Z,100710.91
2022-11-05T16:37:09.002Z,100703.38
2022-11-05T16:39:40.988Z,100657.22
2022-11-05T16:42:37.650Z,100713.19
2022-11-05T16:45:06.697Z,100717.97
2022-11-05T16:47:35.006Z,100716.13
2022-11-05T16:50:03.220Z,100724.44
2022-11-05T16:52:31.183Z,100735.31
2022-11-05T16:55:00.387Z,100753.03
2022-11-05T16:57:30.327Z,100745.91
2022-11-05T17:00:00.199Z,100754.91
2022-11-05T17:02:28.809Z,100761.38
2022-11-05T17:04:56.855Z,100767.44
2022-11-05T17:07:24.657Z,100769.31
2022-11-05T17:09:52.486Z,100761.16
2022-11-05T17:12:21.675Z,100783.31
2022-11-05T17:14:49.471Z,100787.66
2022-11-05T17:17:17.226Z,100787.06
2022-11-05T17:19:45.667Z,100794.94
2022-11-05T17:22:13.764Z,100796.63
2022-11-05T17:24:44.829Z,100792.44
2022-11-05T17:27:12.855Z,100795.59
2022-11-05T17:29:42.171Z,100785.19
2022-11-05T17:32:10.276Z,100774.31
2022-11-05T17:34:38.219Z,100791.63
2022-11-05T17:37:06.138Z,100798.09
2022-11-05T17:39:37.019Z,100770.31
2022-11-05T17:42:05.268Z,100792.88
2022-11-05T17:44:33.193Z,100776.78
2022-11-05T17:47:02.469Z,100791.44
2022-11-05T17:49:30.757Z,100793.22
2022-11-05T17:51:58.596Z,100796.16
2022-11-05T17:54:26.463Z,100798.84
2022-11-05T17:56:54.487Z,100811.00
2022-11-05T17:59:22.351Z,100804.28
2022-11-05T18:01:50.256Z,100805.72
2022-11-05T18:04:19.505Z,100798.88
2022-11-05T18:06:47.460Z,100812.72
2022-11-05T18:09:15.840Z,100811.25
2022-11-05T18:11:43.941Z,100817.25
2022-11-05T18:14:11.766Z,100820.78
2022-11-05T18:16:39.655Z,100822.47
2022-11-05T18:19:07.574Z,100808.72
2022-11-05T18:21:36.988Z,100830.44
2022-11-05T18:24:05.462Z,100835.56
2022-11-05T18:26:33.901Z,100833.53
2022-11-05T18:29:02.303Z,100847.25
2022-11-05T18:31:30.662Z,100840.94
2022-11-05T18:34:00.578Z,100848.25
2022-11-05T18:36:30.796Z,100815.56
2022-11-05T18:39:01.600Z,100839.72
2022-11-05T18:41:29.549Z,100849.94
2022-11-05T18:44:13.171Z,100843.38
2022-11-05T18:46:57.648Z,100834.94
2022-11-05T18:49:26.819Z,100839.41
2022-11-05T18:51:54.822Z,100849.28
2022-11-05T18:54:24.516Z,100839.88
2022-11-05T18:56:52.371Z,100844.44
2022-11-05T18:59:39.073Z,100820.13
2022-11-05T19:02:09.639Z,100846.72
2022-11-05T19:04:38.383Z,100835.00
2022-11-05T19:07:07.277Z,100835.16
2022-11-05T19:09:38.138Z,100846.84
2022-11-05T19:12:07.846Z,100832.91
2022-11-05T19:14:36.895Z,100835.19
2022-11-05T19:17:04.942Z,100833.53
2022-11-05T19:19:32.811Z,100837.25
2022-11-05T19:22:00.836Z,100827.88
2022-11-05T19:24:29.125Z,100816.84
2022-11-05T19:26:58.406Z,100842.28
2022-11-05T19:29:26.254Z,100835.84
2022-11-05T19:31:54.369Z,100838.53
2022-11-05T19:34:22.164Z,100818.03
2022-11-05T19:36:50.065Z,100841.47
2022-11-05T19:39:18.272Z,100838.53
2022-11-05T19:41:47.763Z,100808.72
2022-11-05T19:44:17.116Z,100834.22
2022-11-05T19:46:45.223Z,100835.25
2022-11-05T19:49:13.527Z,100835.41
2022-11-05T19:51:41.745Z,100821.66
2022-11-05T19:54:10.038Z,100832.34
2022-11-05T19:56:38.571Z,100821.22
2022-11-05T19:59:07.550Z,100822.00
2022-11-05T20:01:37.094Z,100821.59
2022-11-05T20:04:05.790Z,100822.53
2022-11-05T20:06:37.823Z,100834.09
2022-11-05T20:09:21.472Z,100843.16
2022-11-05T20:11:50.209Z,100835.56
2022-11-05T20:14:18.417Z,100818.53
2022-11-05T20:16:48.166Z,100800.75
2022-11-05T20:19:18.355Z,100832.22
2022-11-05T20:21:46.582Z,100842.56
2022-11-05T20:24:22.428Z,100850.03
2022-11-05T20:26:52.114Z,100840.25
2022-11-05T20:29:20.459Z,100846.53
2022-11-05T20:31:50.316Z,100827.19
2022-11-05T20:34:18.512Z,100834.53
2022-11-05T20:36:47.646Z,100847.06
2022-11-05T20:39:15.564Z,100843.69
2022-11-05T20:41:43.527Z,100848.16
2022-11-05T20:44:14.213Z,100849.88
2022-11-05T20:46:42.631Z,100849.09
2022-11-05T20:49:12.337Z,100850.19
2022-11-05T20:51:40.316Z,100827.63
2022-11-05T20:54:08.637Z,100830.25
2022-11-05T20:56:37.070Z,100846.72
2022-11-05T20:59:05.735Z,100846.66
2022-11-05T21:01:35.094Z,100819.25
2022-11-05T21:04:04.347Z,100844.13
2022-11-05T21:06:34.850Z,100842.84
2022-11-05T21:09:04.043Z,100842.84
2022-11-05T21:11:56.159Z,100840.63
2022-11-05T21:14:24.123Z,100834.94
2022-11-05T21:16:52.276Z,100851.03
2022-11-05T21:19:20.614Z,100848.06
2022-11-05T21:21:49.898Z,100840.97
2022-11-05T21:24:17.909Z,100820.25
2022-11-05T21:26:46.294Z,100837.03
2022-11-05T21:29:14.293Z,100851.22
2022-11-05T21:31:42.409Z,100844.31
2022-11-05T21:34:10.375Z,100831.28
2022-11-05T21:36:38.248Z,100821.47
2022-11-05T21:39:13.018Z,100846.47
2022-11-05T21:41:42.515Z,100843.38
2022-11-05T21:44:10.659Z,100842.50
2022-11-05T21:46:38.826Z,100840.72
2022-11-05T21:49:06.813Z,100838.41
2022-11-05T21:51:53.117Z,100845.97
2022-11-05T21:54:39.822Z,100825.75
2022-11-05T21:57:31.990Z,100835.88
2022-11-05T22:00:00.901Z,100842.03
2022-11-05T22:02:29.532Z,100835.84
2022-11-05T22:04:59.880Z,100837.94
2022-11-05T22:07:32.656Z,100806.44
2022-11-05T22:10:02.793Z,100836.69
2022-11-05T22:12:32.285Z,100837.66
2022-11-05T22:15:00.268Z,100827.75
2022-11-05T22:17:28.270Z,100830.91
2022-11-05T22:19:56.164Z,100846.38
2022-11-05T22:22:24.026Z,100841.94
2022-11-05T22:24:51.974Z,100856.69
2022-11-05T22:27:22.521Z,100860.44
2022-11-05T22:29:50.946Z,100856.69
2022-11-05T22:32:19.279Z,100845.88
2022-11-05T22:34:48.983Z,100851.75
2022-11-05T22:37:16.943Z,100855.78
2022-11-05T22:39:44.801Z,100862.22
2022-11-05T22:42:12.710Z,100838.09
2022-11-05T22:44:41.952Z,100854.44
2022-11-05T22:47:09.855Z,100852.97
2022-11-05T22:49:37.824Z,100823.72
2022-11-05T22:52:06.267Z,100851.22
2022-11-05T22:54:39.041Z,100851.81
2022-11-05T22:57:07.610Z,100832.91
2022-11-05T22:59:35.417Z,100850.34
2022-11-05T23:02:09.574Z,100853.28
2022-11-05T23:04:38.996Z,100860.38
2022-11-05T23:07:27.556Z,100846.88
2022-11-05T23:10:13.926Z,100836.88
2022-11-05T23:12:43.493Z,100847.63
2022-11-05T23:15:33.787Z,100852.38
2022-11-05T23:18:20.816Z,100848.16
2022-11-05T23:21:07.383Z,100841.53
2022-11-05T23:23:52.680Z,100837.69
2022-11-05T23:26:38.154Z,100830.84
2022-11-05T23:29:06.134Z,100832.81
2022-11-05T23:31:51.483Z,100832.13
2022-11-05T23:34:21.236Z,100807.50
2022-11-05T23:37:06.807Z,100817.78
2022-11-05T23:39:38.376Z,100816.47
2022-11-05T23:42:28.336Z,100819.38
2022-11-05T23:45:14.839Z,100810.56
2022-11-05T23:48:02.097Z,100819.56
2022-11-05T23:50:37.113Z,100823.50
2022-11-05T23:53:08.557Z,100817.63
2022-11-05T23:55:36.513Z,100814.72
2022-11-05T23:58:04.556Z,100807.97
